Time;durP1;ratioP1;P1;durP2;ratioP2;P2;SDS_P1;SDS_P2;PMS_P1;PMS_P2;Temp;Humidity;BMP_temperature;BMP_pressure;BME280_temperature;BME280_humidity;BME280_pressure;Samples;Min_cycle;Max_cycle;Signal;HPM_P1;HPM_P2
2023/04/08 00:00:13;;;;;;;;;;;;;;;7.82;100.00;102241.69;5028848;28;20251;-75
2023/04/08 00:02:38;;;;;;;;;;;;;;;7.71;100.00;102227.91;5015458;28;19927;-76
2023/04/08 00:05:03;;;;;;;;;;;;;;;7.80;100.00;102249.81;5021672;28;19935;-75
2023/04/08 00:07:29;;;;;;;;;;;;;;;7.77;100.00;102236.56;5013054;28;20023;-75
2023/04/08 00:09:55;;;;;;;;;;;;;;;7.75;100.00;102249.13;5025069;28;19952;-75
2023/04/08 00:12:20;;;;;;;;;;;;;;;7.75;100.00;102248.25;5021240;28;20355;-75
2023/04/08 00:14:45;;;;;;;;;;;;;;;7.76;100.00;102250.88;5012159;28;20253;-75
2023/04/08 00:17:11;;;;;;;;;;;;;;;7.74;100.00;102247.38;5019416;28;20039;-75
2023/04/08 00:19:36;;;;;;;;;;;;;;;7.71;100.00;102239.50;5024752;28;20204;-75
2023/04/08 00:22:01;;;;;;;;;;;;;;;7.71;100.00;102247.50;5037612;28;19970;-76
2023/04/08 00:24:26;;;;;;;;;;;;;;;7.74;100.00;102239.38;5035030;28;20704;-75
2023/04/08 00:26:52;;;;;;;;;;;;;;;7.75;100.00;102234.88;5019923;28;19959;-75
2023/04/08 00:29:17;;;;;;;;;;;;;;;7.74;100.00;102233.13;5017465;28;19979;-76
2023/04/08 00:31:42;;;;;;;;;;;;;;;7.74;100.00;102243.81;5022787;28;19968;-75
2023/04/08 00:34:07;;;;;;;;;;;;;;;7.77;100.00;102241.91;5030235;28;19963;-75
2023/04/08 00:36:33;;;;;;;;;;;;;;;7.78;100.00;102245.44;5033014;28;19925;-75
2023/04/08 00:38:58;;;;;;;;;;;;;;;7.79;100.00;102242.72;5025444;28;19928;-75
2023/04/08 00:41:24;;;;;;;;;;;;;;;7.76;100.00;102237.50;5022800;28;19921;-75
2023/04/08 00:43:49;;;;;;;;;;;;;;;7.78;100.00;102242.75;5016558;28;19932;-75
2023/04/08 00:46:14;;;;;;;;;;;;;;;7.77;100.00;102247.25;5025231;28;20044;-75
2023/04/08 00:48:40;;;;;;;;;;;;;;;7.75;100.00;102245.56;5031277;28;19988;-76
2023/04/08 00:51:06;;;;;;;;;;;;;;;7.75;100.00;102253.59;5038422;28;20354;-75
2023/04/08 00:53:31;;;;;;;;;;;;;;;7.77;100.00;102254.38;5034009;28;19928;-76
2023/04/08 00:55:56;;;;;;;;;;;;;;;7.77;100.00;102251.72;5016163;28;19932;-75
2023/04/08 00:58:22;;;;;;;;;;;;;;;7.72;100.00;102248.38;5032258;28;19921;-76
2023/04/08 01:00:52;;;;;;;;;;;;;;;7.68;100.00;102254.81;5029587;28;20314;-75
2023/04/08 01:03:21;;;;;;;;;;;;;;;7.65;100.00;102262.03;5019175;28;19925;-76
2023/04/08 01:05:46;;;;;;;;;;;;;;;7.62;100.00;102262.16;5029214;28;19928;-75
2023/04/08 01:08:11;;;;;;;;;;;;;;;7.63;100.00;102250.53;5034441;28;19929;-75
2023/04/08 01:10:37;;;;;;;;;;;;;;;7.66;100.00;102268.22;5014912;28;19921;-75
2023/04/08 01:13:07;;;;;;;;;;;;;;;7.62;100.00;102261.25;5034578;28;19962;-76
2023/04/08 01:15:32;;;;;;;;;;;;;;;7.62;100.00;102256.81;5024288;28;20484;-76
2023/04/08 01:17:57;;;;;;;;;;;;;;;7.65;100.00;102258.47;5020385;28;20222;-75
2023/04/08 01:20:23;;;;;;;;;;;;;;;7.63;100.00;102257.66;5024088;28;19936;-75
2023/04/08 01:22:53;;;;;;;;;;;;;;;7.63;100.00;102263.00;5023586;28;20380;-76
2023/04/08 01:25:20;;;;;;;;;;;;;;;7.68;100.00;102260.16;5025150;28;20085;-75
2023/04/08 01:27:46;;;;;;;;;;;;;;;7.67;100.00;102261.94;5022939;28;19916;-75
2023/04/08 01:30:13;;;;;;;;;;;;;;;7.69;100.00;102262.75;5007996;28;19931;-75
2023/04/08 01:32:38;;;;;;;;;;;;;;;7.69;100.00;102256.50;5024339;28;20381;-75
2023/04/08 01:35:03;;;;;;;;;;;;;;;7.71;100.00;102257.31;5034152;28;19925;-75
2023/04/08 01:37:29;;;;;;;;;;;;;;;7.70;100.00;102264.50;5006150;28;19917;-75
2023/04/08 01:39:55;;;;;;;;;;;;;;;7.72;100.00;102261.75;5022417;28;19968;-75
2023/04/08 01:42:21;;;;;;;;;;;;;;;7.74;100.00;102268.78;5020132;28;19975;-75
2023/04/08 01:44:47;;;;;;;;;;;;;;;7.74;100.00;102270.56;5005532;28;20043;-75
2023/04/08 01:47:12;;;;;;;;;;;;;;;7.72;100.00;102267.97;5024871;28;19943;-75
2023/04/08 01:49:38;;;;;;;;;;;;;;;7.74;100.00;102266.09;5023017;28;19971;-75
2023/04/08 01:52:04;;;;;;;;;;;;;;;7.76;100.00;102277.59;5023788;28;20351;-75
2023/04/08 01:54:29;;;;;;;;;;;;;;;7.76;100.00;102282.06;5020060;28;20360;-75
2023/04/08 01:56:56;;;;;;;;;;;;;;;7.74;100.00;102266.09;5026969;28;20375;-75
2023/04/08 01:59:21;;;;;;;;;;;;;;;7.73;100.00;102268.81;5020507;28;19921;-75
2023/04/08 02:01:46;;;;;;;;;;;;;;;7.38;100.00;102225.78;5021095;28;19956;-75
2023/04/08 02:04:11;;;;;;;;;;;;;;;7.60;100.00;102272.03;5025705;28;19929;-75
2023/04/08 02:06:37;;;;;;;;;;;;;;;7.62;100.00;102270.16;5017648;28;19966;-75
2023/04/08 02:09:03;;;;;;;;;;;;;;;7.67;100.00;102271.78;5008431;28;20074;-75
2023/04/08 02:11:28;;;;;;;;;;;;;;;7.68;100.00;102274.38;5018957;28;19952;-75
2023/04/08 02:13:53;;;;;;;;;;;;;;;7.67;100.00;102275.31;5026200;28;19921;-75
2023/04/08 02:16:21;;;;;;;;;;;;;;;7.64;100.00;102270.97;5026153;28;19927;-75
2023/04/08 02:18:49;;;;;;;;;;;;;;;7.64;100.00;102276.31;5020697;28;20013;-75
2023/04/08 02:21:15;;;;;;;;;;;;;;;7.62;100.00;102279.97;5022929;28;19925;-75
2023/04/08 02:23:40;;;;;;;;;;;;;;;7.61;100.00;102281.78;5026828;28;20457;-75
2023/04/08 02:26:07;;;;;;;;;;;;;;;7.57;100.00;102282.84;5021004;28;19994;-75
2023/04/08 02:28:32;;;;;;;;;;;;;;;7.56;100.00;102283.78;5012633;28;19935;-75
2023/04/08 02:30:59;;;;;;;;;;;;;;;7.50;100.00;102279.56;5016342;28;19965;-75
2023/04/08 02:33:24;;;;;;;;;;;;;;;7.45;100.00;102286.91;5022744;28;19932;-75
2023/04/08 02:35:50;;;;;;;;;;;;;;;7.43;100.00;102279.88;5028698;28;19967;-75
2023/04/08 02:38:16;;;;;;;;;;;;;;;7.45;100.00;102283.34;5018214;28;19963;-75
2023/04/08 02:40:41;;;;;;;;;;;;;;;7.46;100.00;102283.31;5031105;28;19948;-75
2023/04/08 02:43:06;;;;;;;;;;;;;;;7.35;100.00;102266.84;5023890;28;19986;-75
2023/04/08 02:45:41;;;;;;;;;;;;;;;7.48;100.00;102294.81;5031546;28;20007;-75
2023/04/08 02:48:06;;;;;;;;;;;;;;;7.48;100.00;102285.91;5020531;28;20294;-75
2023/04/08 02:50:31;;;;;;;;;;;;;;;7.47;100.00;102282.38;5030999;28;20382;-75
2023/04/08 02:52:57;;;;;;;;;;;;;;;7.41;100.00;102282.63;5012391;28;19928;-75
2023/04/08 02:55:22;;;;;;;;;;;;;;;7.09;100.00;102230.53;5032049;28;20284;-75
2023/04/08 02:57:47;;;;;;;;;;;;;;;7.35;100.00;102289.09;5004202;28;19921;-75
2023/04/08 03:00:13;;;;;;;;;;;;;;;7.34;100.00;102292.69;5042732;28;19921;-75
2023/04/08 03:02:38;;;;;;;;;;;;;;;7.30;100.00;102285.75;5011608;28;19928;-76
2023/04/08 03:05:04;;;;;;;;;;;;;;;7.25;100.00;102294.88;5026539;28;20130;-75
2023/04/08 03:07:30;;;;;;;;;;;;;;;7.15;100.00;102303.25;5028700;28;19943;-75
2023/04/08 03:09:55;;;;;;;;;;;;;;;7.12;100.00;102297.19;5021567;28;20416;-75
2023/04/08 03:12:20;;;;;;;;;;;;;;;7.07;100.00;102294.66;5027911;28;19921;-75
2023/04/08 03:14:48;;;;;;;;;;;;;;;7.05;100.00;102294.75;5016124;28;19927;-75
2023/04/08 03:17:13;;;;;;;;;;;;;;;7.02;100.00;102293.97;5019567;28;19928;-75
2023/04/08 03:19:38;;;;;;;;;;;;;;;7.00;100.00;102294.06;5020475;28;19921;-75
2023/04/08 03:22:04;;;;;;;;;;;;;;;7.00;100.00;102298.53;5007828;28;19921;-75
2023/04/08 03:24:29;;;;;;;;;;;;;;;6.99;100.00;102292.31;5013377;28;19999;-76
2023/04/08 03:26:54;;;;;;;;;;;;;;;6.93;100.00;102299.69;5021432;28;19921;-75
2023/04/08 03:29:19;;;;;;;;;;;;;;;6.88;100.00;102303.41;5033205;28;19951;-75
2023/04/08 03:31:45;;;;;;;;;;;;;;;6.92;100.00;102304.16;5021484;28;19921;-75
2023/04/08 03:34:10;;;;;;;;;;;;;;;6.97;100.00;102295.97;5022970;28;19921;-75
2023/04/08 03:36:35;;;;;;;;;;;;;;;6.95;100.00;102305.84;5023258;28;20379;-75
2023/04/08 03:39:02;;;;;;;;;;;;;;;6.95;100.00;102311.19;5028654;28;20351;-75
2023/04/08 03:41:27;;;;;;;;;;;;;;;6.97;100.00;102304.84;5009219;28;20369;-76
2023/04/08 03:43:52;;;;;;;;;;;;;;;6.99;100.00;102303.00;5019519;28;19921;-75
2023/04/08 03:46:18;;;;;;;;;;;;;;;7.01;100.00;102302.94;5018006;28;20396;-76
2023/04/08 03:48:43;;;;;;;;;;;;;;;7.08;100.00;102306.25;5014053;28;20683;-75
2023/04/08 03:51:08;;;;;;;;;;;;;;;7.12;100.00;102308.72;5021177;28;20030;-75
2023/04/08 03:53:33;;;;;;;;;;;;;;;7.14;100.00;102309.53;5022971;28;19921;-75
2023/04/08 03:55:59;;;;;;;;;;;;;;;7.14;100.00;102312.19;5012822;28;19967;-75
2023/04/08 03:58:24;;;;;;;;;;;;;;;7.16;100.00;102306.78;5016630;28;19927;-75
2023/04/08 04:00:49;;;;;;;;;;;;;;;7.17;100.00;102305.84;5015664;28;20418;-75
2023/04/08 04:03:14;;;;;;;;;;;;;;;7.19;100.00;102314.69;5020355;28;20008;-75
2023/04/08 04:05:40;;;;;;;;;;;;;;;7.20;100.00;102309.28;5015009;28;20009;-75
2023/04/08 04:08:05;;;;;;;;;;;;;;;7.16;100.00;102306.78;5018580;28;20426;-75
2023/04/08 04:10:30;;;;;;;;;;;;;;;7.15;100.00;102316.59;5025475;28;19917;-75
2023/04/08 04:12:56;;;;;;;;;;;;;;;7.14;100.00;102332.72;5029572;28;19927;-75
2023/04/08 04:15:21;;;;;;;;;;;;;;;7.14;100.00;102322.03;5033641;28;20401;-75
2023/04/08 04:17:47;;;;;;;;;;;;;;;7.11;100.00;102323.00;5025579;28;19999;-75
2023/04/08 04:20:12;;;;;;;;;;;;;;;7.11;100.00;102331.00;5017977;28;19932;-75
2023/04/08 04:22:37;;;;;;;;;;;;;;;7.07;100.00;102339.22;5030430;28;19920;-75
2023/04/08 04:25:02;;;;;;;;;;;;;;;7.02;100.00;102342.94;5012050;28;19948;-75
2023/04/08 04:27:28;;;;;;;;;;;;;;;7.01;100.00;102340.34;5021961;28;19976;-75
2023/04/08 04:29:53;;;;;;;;;;;;;;;6.96;100.00;102337.81;5020273;28;19928;-75
2023/04/08 04:32:19;;;;;;;;;;;;;;;6.88;100.00;102348.81;5020651;28;20355;-75
2023/04/08 04:34:44;;;;;;;;;;;;;;;6.88;100.00;102346.13;5017253;28;19972;-75
2023/04/08 04:37:09;;;;;;;;;;;;;;;6.87;100.00;102351.53;5016570;28;20464;-75
2023/04/08 04:39:35;;;;;;;;;;;;;;;6.77;100.00;102352.81;5025134;28;19924;-75
2023/04/08 04:42:00;;;;;;;;;;;;;;;6.75;100.00;102355.56;5016442;28;19920;-75
2023/04/08 04:44:26;;;;;;;;;;;;;;;6.67;100.00;102362.97;5016777;28;19928;-75
2023/04/08 04:46:51;;;;;;;;;;;;;;;6.63;100.00;102367.53;5011090;28;20387;-75
2023/04/08 04:49:16;;;;;;;;;;;;;;;6.55;100.00;102369.63;5021325;28;19928;-75
2023/04/08 04:51:42;;;;;;;;;;;;;;;6.44;100.00;102362.00;5023194;28;20037;-75
2023/04/08 04:54:07;;;;;;;;;;;;;;;6.41;100.00;102362.13;5031384;28;19963;-75
2023/04/08 04:56:32;;;;;;;;;;;;;;;6.42;100.00;102366.53;5028478;28;19976;-75
2023/04/08 04:58:57;;;;;;;;;;;;;;;6.39;100.00;102364.81;5027100;28;19952;-75
2023/04/08 05:01:23;;;;;;;;;;;;;;;6.30;100.00;102363.34;5027641;28;20198;-75
2023/04/08 05:03:48;;;;;;;;;;;;;;;6.23;100.00;102361.81;5026103;28;19921;-75
2023/04/08 05:06:13;;;;;;;;;;;;;;;6.22;100.00;102370.78;5026057;28;20024;-75
2023/04/08 05:08:39;;;;;;;;;;;;;;;6.27;100.00;102381.28;5023309;28;19928;-75
2023/04/08 05:11:07;;;;;;;;;;;;;;;6.34;100.00;102379.25;5020053;28;19963;-75
2023/04/08 05:13:33;;;;;;;;;;;;;;;6.34;100.00;102381.91;5018276;28;20673;-75
2023/04/08 05:15:58;;;;;;;;;;;;;;;6.32;100.00;102383.78;5029585;28;19925;-75
2023/04/08 05:18:23;;;;;;;;;;;;;;;6.18;100.00;102387.81;5025235;28;19932;-75
2023/04/08 05:20:48;;;;;;;;;;;;;;;6.10;100.00;102382.72;5025564;28;20007;-75
2023/04/08 05:23:13;;;;;;;;;;;;;;;5.99;100.00;102395.53;5019404;28;20044;-76
2023/04/08 05:25:39;;;;;;;;;;;;;;;5.89;100.00;102397.63;5017812;28;19927;-75
2023/04/08 05:28:05;;;;;;;;;;;;;;;5.66;100.00;102398.38;5021552;28;19960;-75
2023/04/08 05:30:30;;;;;;;;;;;;;;;5.66;100.00;102409.91;5030146;28;19928;-75
2023/04/08 05:32:55;;;;;;;;;;;;;;;5.71;100.00;102402.63;5021257;28;19932;-75
2023/04/08 05:35:20;;;;;;;;;;;;;;;5.68;100.00;102400.06;5025006;28;19963;-75
2023/04/08 05:37:46;;;;;;;;;;;;;;;5.65;100.00;102405.50;5021888;28;20012;-75
2023/04/08 05:40:11;;;;;;;;;;;;;;;5.68;100.00;102409.84;5026938;28;20195;-75
2023/04/08 05:42:36;;;;;;;;;;;;;;;5.72;100.00;102411.50;5023537;28;20280;-76
2023/04/08 05:45:01;;;;;;;;;;;;;;;5.66;100.00;102412.56;5034222;28;20279;-75
2023/04/08 05:47:27;;;;;;;;;;;;;;;5.59;100.00;102418.13;5034879;28;19920;-75
2023/04/08 05:49:52;;;;;;;;;;;;;;;5.58;100.00;102419.03;5023924;28;19925;-75
2023/04/08 05:52:17;;;;;;;;;;;;;;;5.53;100.00;102414.75;5022864;28;19940;-75
2023/04/08 05:54:43;;;;;;;;;;;;;;;5.63;100.00;102412.66;5029886;28;20009;-75
2023/04/08 05:57:08;;;;;;;;;;;;;;;5.63;100.00;102414.44;5027100;28;20264;-75
2023/04/08 05:59:33;;;;;;;;;;;;;;;5.61;100.00;102421.63;5024069;28;19928;-75
2023/04/08 06:01:59;;;;;;;;;;;;;;;5.61;100.00;102429.59;5022820;28;19932;-75
2023/04/08 06:04:24;;;;;;;;;;;;;;;5.52;100.00;102428.09;5028562;28;19913;-75
2023/04/08 06:06:49;;;;;;;;;;;;;;;5.55;100.00;102434.22;5018446;28;19920;-76
2023/04/08 06:09:14;;;;;;;;;;;;;;;5.64;100.00;102433.06;5020793;28;20371;-75
2023/04/08 06:11:40;;;;;;;;;;;;;;;5.58;100.00;102435.03;5024055;28;20043;-76
2023/04/08 06:14:05;;;;;;;;;;;;;;;5.59;100.00;102432.34;5019910;28;19921;-75
2023/04/08 06:16:31;;;;;;;;;;;;;;;5.61;100.00;102434.94;5032350;28;19920;-75
2023/04/08 06:18:56;;;;;;;;;;;;;;;5.56;100.00;102433.28;5020918;28;19921;-75
2023/04/08 06:21:21;;;;;;;;;;;;;;;5.62;100.00;102445.56;5026328;28;20647;-75
2023/04/08 06:23:46;;;;;;;;;;;;;;;5.67;100.00;102448.06;5025142;28;20330;-75
2023/04/08 06:26:12;;;;;;;;;;;;;;;5.50;100.00;102445.94;5021373;28;20622;-75
2023/04/08 06:28:37;;;;;;;;;;;;;;;5.43;100.00;102420.41;5019027;28;20356;-75
2023/04/08 06:31:02;;;;;;;;;;;;;;;5.53;100.00;102449.41;5019625;28;19921;-75
2023/04/08 06:33:27;;;;;;;;;;;;;;;5.46;100.00;102447.81;5009679;28;19970;-75
2023/04/08 06:36:02;;;;;;;;;;;;;;;5.45;100.00;102455.84;5018958;28;20481;-75
2023/04/08 06:38:30;;;;;;;;;;;;;;;5.54;100.00;102463.56;5022019;28;20135;-75
2023/04/08 06:40:56;;;;;;;;;;;;;;;5.61;100.00;102456.25;5016577;28;19964;-75
2023/04/08 06:43:21;;;;;;;;;;;;;;;5.73;100.00;102466.53;5017895;28;20051;-75
2023/04/08 06:45:46;;;;;;;;;;;;;;;5.80;100.00;102461.88;5011407;28;19928;-75
2023/04/08 06:48:11;;;;;;;;;;;;;;;5.81;100.00;102469.84;5010771;28;20224;-75
2023/04/08 06:50:36;;;;;;;;;;;;;;;5.82;100.00;102458.28;5022200;28;20007;-75
2023/04/08 06:53:02;;;;;;;;;;;;;;;5.78;100.00;102467.28;5021081;28;19925;-75
2023/04/08 06:55:27;;;;;;;;;;;;;;;5.84;100.00;102472.41;5016644;28;19925;-75
2023/04/08 06:57:52;;;;;;;;;;;;;;;5.79;100.00;102485.03;5028027;28;20414;-75
2023/04/08 07:00:17;;;;;;;;;;;;;;;5.91;100.00;102488.19;5017666;28;20663;-76
2023/04/08 07:02:43;;;;;;;;;;;;;;;5.98;100.00;102487.94;5027790;28;20355;-75
2023/04/08 07:05:08;;;;;;;;;;;;;;;5.89;100.00;102490.03;5025770;28;20020;-75
2023/04/08 07:07:33;;;;;;;;;;;;;;;5.92;100.00;102488.16;5027752;28;19921;-75
2023/04/08 07:09:59;;;;;;;;;;;;;;;5.95;100.00;102489.84;5017957;28;19917;-75
2023/04/08 07:12:24;;;;;;;;;;;;;;;5.96;100.00;102492.47;5015769;28;20533;-75
2023/04/08 07:14:49;;;;;;;;;;;;;;;6.09;100.00;102500.13;5012896;28;20445;-75
2023/04/08 07:17:15;;;;;;;;;;;;;;;6.17;100.00;102499.84;5004945;28;20372;-75
2023/04/08 07:19:40;;;;;;;;;;;;;;;6.13;100.00;102496.44;5010001;28;20436;-75
2023/04/08 07:22:06;;;;;;;;;;;;;;;6.00;100.00;102501.28;5019671;28;19960;-75
2023/04/08 07:24:31;;;;;;;;;;;;;;;5.92;100.00;102500.63;5023718;28;19967;-75
2023/04/08 07:26:57;;;;;;;;;;;;;;;5.92;100.00;102516.59;5002705;28;19921;-75
2023/04/08 07:29:22;;;;;;;;;;;;;;;5.91;100.00;102514.84;5027577;28;20558;-75
2023/04/08 07:31:47;;;;;;;;;;;;;;;5.97;100.00;102515.53;5003739;28;20032;-75
2023/04/08 07:34:12;;;;;;;;;;;;;;;5.80;100.00;102516.09;5026448;28;20004;-75
2023/04/08 07:36:38;;;;;;;;;;;;;;;5.77;100.00;102516.19;5026914;28;19925;-75
2023/04/08 07:39:03;;;;;;;;;;;;;;;5.73;100.00;102511.84;5011371;28;20346;-75
2023/04/08 07:41:28;;;;;;;;;;;;;;;5.67;100.00;102526.25;5017735;28;19921;-75
2023/04/08 07:43:54;;;;;;;;;;;;;;;5.48;100.00;102469.06;5000601;28;20008;-75
2023/04/08 07:46:20;;;;;;;;;;;;;;;5.91;100.00;102522.84;5016629;28;20789;-75
2023/04/08 07:48:45;;;;;;;;;;;;;;;6.00;100.00;102523.47;5016816;28;20436;-75
2023/04/08 07:51:10;;;;;;;;;;;;;;;6.07;100.00;102523.28;5027589;28;19928;-75
2023/04/08 07:53:36;;;;;;;;;;;;;;;5.92;100.00;102522.84;5031741;28;19925;-75
2023/04/08 07:56:04;;;;;;;;;;;;;;;5.76;100.00;102525.09;5011190;28;19929;-75
2023/04/08 07:58:30;;;;;;;;;;;;;;;5.93;100.00;102526.34;5030800;28;20430;-75
2023/04/08 08:00:56;;;;;;;;;;;;;;;6.03;100.00;102525.19;5013164;28;20353;-75
2023/04/08 08:03:21;;;;;;;;;;;;;;;6.14;100.00;102531.03;5030175;28;20040;-75
2023/04/08 08:05:46;;;;;;;;;;;;;;;6.27;100.00;102523.50;5031788;28;20006;-75
2023/04/08 08:08:12;;;;;;;;;;;;;;;6.27;100.00;102523.50;5026094;28;19931;-75
2023/04/08 08:10:37;;;;;;;;;;;;;;;6.34;100.00;102525.97;5022640;28;19914;-75
2023/04/08 08:13:03;;;;;;;;;;;;;;;6.56;100.00;102531.50;5020780;28;19925;-75
2023/04/08 08:15:28;;;;;;;;;;;;;;;6.69;100.00;102527.47;5008591;28;19971;-75
2023/04/08 08:17:53;;;;;;;;;;;;;;;6.69;100.00;102530.13;5015474;28;19920;-75
2023/04/08 08:20:19;;;;;;;;;;;;;;;6.79;100.00;102533.34;5022753;28;19924;-75
2023/04/08 08:22:44;;;;;;;;;;;;;;;6.72;100.00;102538.03;5021843;28;19924;-76
2023/04/08 08:25:09;;;;;;;;;;;;;;;6.79;100.00;102538.69;5016342;28;19925;-75
2023/04/08 08:27:35;;;;;;;;;;;;;;;6.78;100.00;102536.09;5027171;28;19920;-75
2023/04/08 08:30:00;;;;;;;;;;;;;;;6.71;100.00;102538.97;5019145;28;20051;-75
2023/04/08 08:32:25;;;;;;;;;;;;;;;6.66;100.00;102538.25;5018585;28;20055;-76
2023/04/08 08:34:51;;;;;;;;;;;;;;;6.68;100.00;102540.88;5018491;28;19970;-75
2023/04/08 08:37:16;;;;;;;;;;;;;;;6.54;100.00;102552.00;5012304;28;19920;-75
2023/04/08 08:39:41;;;;;;;;;;;;;;;6.74;100.00;102546.00;5024895;28;20020;-75
2023/04/08 08:42:06;;;;;;;;;;;;;;;6.88;100.00;102548.19;5018532;28;19925;-75
2023/04/08 08:44:32;;;;;;;;;;;;;;;6.94;100.00;102555.97;5031049;28;19921;-75
2023/04/08 08:46:57;;;;;;;;;;;;;;;6.70;100.00;102555.03;5025711;28;20250;-76
2023/04/08 08:49:22;;;;;;;;;;;;;;;6.72;100.00;102556.72;5015560;28;20288;-76
2023/04/08 08:51:48;;;;;;;;;;;;;;;6.73;100.00;102555.78;5016701;28;20383;-75
2023/04/08 08:54:13;;;;;;;;;;;;;;;6.73;100.00;102552.28;5008354;28;20276;-75
2023/04/08 08:56:39;;;;;;;;;;;;;;;6.93;100.00;102559.56;5021595;28;19921;-75
2023/04/08 08:59:04;;;;;;;;;;;;;;;6.89;100.00;102560.59;5034365;28;20027;-76
2023/04/08 09:01:33;;;;;;;;;;;;;;;7.08;100.00;102559.97;5013981;28;19917;-75
2023/04/08 09:04:08;;;;;;;;;;;;;;;7.32;100.00;102556.41;5015128;28;20067;-75
2023/04/08 09:06:34;;;;;;;;;;;;;;;7.92;100.00;102555.06;5022218;28;19925;-75
2023/04/08 09:09:00;;;;;;;;;;;;;;;8.38;100.00;102561.25;5007508;28;19928;-76
2023/04/08 09:11:25;;;;;;;;;;;;;;;8.70;100.00;102552.84;5018733;28;20267;-75
2023/04/08 09:13:50;;;;;;;;;;;;;;;8.64;100.00;102556.66;5024455;28;19924;-75
2023/04/08 09:16:17;;;;;;;;;;;;;;;8.98;100.00;102560.56;5011630;28;20099;-75
2023/04/08 09:18:46;;;;;;;;;;;;;;;9.26;100.00;102561.16;5014191;28;20323;-75
2023/04/08 09:21:15;;;;;;;;;;;;;;;9.26;100.00;102558.50;5017725;28;19924;-75
2023/04/08 09:23:42;;;;;;;;;;;;;;;9.63;100.00;102563.97;5034702;28;19924;-74
2023/04/08 09:26:14;;;;;;;;;;;;;;;9.74;100.00;102572.38;5031102;28;19921;-75
2023/04/08 09:28:40;;;;;;;;;;;;;;;10.11;100.00;102556.34;5019624;28;19955;-75
2023/04/08 09:31:16;;;;;;;;;;;;;;;9.68;100.00;102559.25;5032325;28;20055;-75
2023/04/08 09:33:42;;;;;;;;;;;;;;;9.84;100.00;102562.97;5018215;28;20229;-74
2023/04/08 09:36:07;;;;;;;;;;;;;;;10.00;100.00;102560.44;5038077;28;20431;-75
2023/04/08 09:38:32;;;;;;;;;;;;;;;10.16;100.00;102570.41;5023441;28;20580;-74
2023/04/08 09:40:57;;;;;;;;;;;;;;;10.12;100.00;102575.06;5014868;28;20041;-76
2023/04/08 09:43:22;;;;;;;;;;;;;;;9.80;100.00;102569.41;5019929;28;20023;-75
2023/04/08 09:45:48;;;;;;;;;;;;;;;9.83;100.00;102571.06;5016101;28;19920;-76
2023/04/08 09:48:16;;;;;;;;;;;;;;;9.92;100.00;102575.16;5019228;28;19921;-75
2023/04/08 09:50:42;;;;;;;;;;;;;;;9.75;100.00;102574.13;5018669;28;20031;-76
2023/04/08 09:53:14;;;;;;;;;;;;;;;10.04;100.00;102569.19;5021254;28;19943;-75
2023/04/08 09:55:40;;;;;;;;;;;;;;;10.33;100.00;102569.59;5018052;28;19925;-75
2023/04/08 09:58:15;;;;;;;;;;;;;;;11.08;100.00;102562.25;5023684;28;20000;-74
2023/04/08 10:00:42;;;;;;;;;;;;;;;11.52;100.00;102565.34;5012482;28;19932;-75
2023/04/08 10:03:07;;;;;;;;;;;;;;;11.91;100.00;102558.69;5018604;28;20410;-75
2023/04/08 10:05:35;;;;;;;;;;;;;;;12.29;100.00;102549.41;5021632;28;20254;-74
2023/04/08 10:08:00;;;;;;;;;;;;;;;13.05;100.00;102537.72;5021370;28;20028;-74
2023/04/08 10:10:26;;;;;;;;;;;;;;;12.65;100.00;102498.84;5018690;28;19927;-75
2023/04/08 10:12:51;;;;;;;;;;;;;;;13.01;100.00;102533.47;5015842;28;19956;-74
2023/04/08 10:15:26;;;;;;;;;;;;;;;13.65;100.00;102541.22;5015580;28;20477;-74
2023/04/08 10:17:55;;;;;;;;;;;;;;;14.27;100.00;102533.66;5028664;28;19916;-75
2023/04/08 10:20:41;;;;;;;;;;;;;;;14.57;89.95;102529.00;5028544;28;19927;-74
2023/04/08 10:23:09;;;;;;;;;;;;;;;14.74;96.73;102526.03;5017210;28;19928;-75
2023/04/08 10:25:35;;;;;;;;;;;;;;;14.87;95.84;102533.28;5022654;28;19928;-75
2023/04/08 10:28:02;;;;;;;;;;;;;;;14.34;86.59;102526.88;5018098;28;19925;-74
2023/04/08 10:30:27;;;;;;;;;;;;;;;15.22;89.11;102535.38;5005481;28;20364;-74
2023/04/08 10:32:55;;;;;;;;;;;;;;;15.30;84.37;102525.72;5021283;28;20020;-74
2023/04/08 10:35:30;;;;;;;;;;;;;;;15.39;88.10;102526.91;5013466;28;20521;-75
2023/04/08 10:37:55;;;;;;;;;;;;;;;15.65;84.10;102526.00;5015379;28;20014;-75
2023/04/08 10:40:20;;;;;;;;;;;;;;;16.44;85.56;102523.78;5021113;28;20435;-74
2023/04/08 10:42:45;;;;;;;;;;;;;;;16.77;76.02;102516.75;5022749;28;19974;-73
2023/04/08 10:45:16;;;;;;;;;;;;;;;16.52;75.33;102517.75;5019330;28;19924;-73
2023/04/08 10:47:41;;;;;;;;;;;;;;;16.80;71.81;102515.63;5016238;28;19944;-72
2023/04/08 10:50:13;;;;;;;;;;;;;;;16.91;68.88;102521.09;5020764;28;20374;-72
2023/04/08 10:52:48;;;;;;;;;;;;;;;17.07;65.09;102511.75;5025206;28;19951;-72
2023/04/08 10:55:15;;;;;;;;;;;;;;;17.37;62.33;102516.56;5023015;28;20596;-72
2023/04/08 10:57:40;;;;;;;;;;;;;;;17.99;66.30;102511.59;5020248;28;20333;-72
2023/04/08 11:00:10;;;;;;;;;;;;;;;17.43;67.79;102517.94;5001943;28;20403;-73
2023/04/08 11:02:38;;;;;;;;;;;;;;;17.82;63.82;102517.53;5008318;28;19960;-73
2023/04/08 11:05:03;;;;;;;;;;;;;;;18.14;64.05;102511.31;5019636;28;20027;-73
2023/04/08 11:07:29;;;;;;;;;;;;;;;17.58;56.44;102504.09;5025047;28;19925;-72
2023/04/08 11:09:54;;;;;;;;;;;;;;;18.12;59.18;102506.00;5025876;28;19943;-72
2023/04/08 11:12:20;;;;;;;;;;;;;;;17.82;62.64;102512.09;5025004;28;20375;-72
2023/04/08 11:14:45;;;;;;;;;;;;;;;18.54;55.91;102501.63;5028834;28;19929;-72
2023/04/08 11:17:11;;;;;;;;;;;;;;;19.28;49.72;102505.22;5019493;28;19921;-73
2023/04/08 11:19:38;;;;;;;;;;;;;;;18.92;46.10;102502.03;5020611;28;19964;-74
2023/04/08 11:22:03;;;;;;;;;;;;;;;19.79;47.82;102501.53;5020477;28;20395;-73
2023/04/08 11:24:28;;;;;;;;;;;;;;;19.82;45.94;102504.97;5024282;28;19921;-72
2023/04/08 11:26:53;;;;;;;;;;;;;;;20.17;44.52;102498.16;5025888;28;20213;-72
2023/04/08 11:29:19;;;;;;;;;;;;;;;19.76;42.89;102500.94;5023975;28;19967;-72
2023/04/08 11:31:44;;;;;;;;;;;;;;;20.13;43.00;102491.28;5025114;28;19976;-74
2023/04/08 11:34:09;;;;;;;;;;;;;;;20.38;44.61;102485.25;5026703;28;19921;-72
2023/04/08 11:36:35;;;;;;;;;;;;;;;20.79;43.17;102487.81;5022343;28;20406;-73
2023/04/08 11:39:05;;;;;;;;;;;;;;;21.03;40.29;102491.91;5018692;28;19933;-73
2023/04/08 11:41:38;;;;;;;;;;;;;;;20.65;41.94;102490.97;5027948;28;20385;-72
2023/04/08 11:44:04;;;;;;;;;;;;;;;20.05;40.60;102503.75;5023072;28;20309;-72
2023/04/08 11:46:29;;;;;;;;;;;;;;;21.16;37.74;102493.44;5019943;28;20616;-72
2023/04/08 11:48:58;;;;;;;;;;;;;;;20.59;42.29;102492.41;5019997;28;20151;-72
2023/04/08 11:51:23;;;;;;;;;;;;;;;20.17;39.06;102496.28;5022857;28;20352;-72
2023/04/08 11:53:50;;;;;;;;;;;;;;;19.85;39.58;102494.66;5011610;28;20394;-73
2023/04/08 11:56:16;;;;;;;;;;;;;;;18.89;44.46;102490.41;5027252;28;19932;-72
2023/04/08 11:58:41;;;;;;;;;;;;;;;18.22;43.72;102495.19;5027900;28;19920;-72
2023/04/08 12:01:06;;;;;;;;;;;;;;;18.58;44.46;102492.19;5027341;28;19968;-72
2023/04/08 12:03:31;;;;;;;;;;;;;;;17.64;44.47;102500.91;5023377;28;20016;-72
2023/04/08 12:05:58;;;;;;;;;;;;;;;17.03;44.32;102494.00;5020979;28;20049;-73
2023/04/08 12:08:23;;;;;;;;;;;;;;;16.12;44.52;102499.13;5025365;28;19954;-72
2023/04/08 12:10:48;;;;;;;;;;;;;;;15.64;45.62;102505.31;5023662;28;20035;-72
2023/04/08 12:13:14;;;;;;;;;;;;;;;15.73;50.87;102497.38;5014565;28;19942;-71
2023/04/08 12:15:39;;;;;;;;;;;;;;;15.95;49.17;102503.09;5024479;28;20467;-72
2023/04/08 12:18:05;;;;;;;;;;;;;;;15.98;49.99;102498.31;5032249;28;20351;-72
2023/04/08 12:20:30;;;;;;;;;;;;;;;15.49;49.28;102494.66;5024843;28;19978;-73
2023/04/08 12:22:55;;;;;;;;;;;;;;;15.72;50.34;102492.09;5027641;28;19924;-72
2023/04/08 12:25:20;;;;;;;;;;;;;;;15.48;51.48;102497.44;5021635;28;19939;-72
2023/04/08 12:27:46;;;;;;;;;;;;;;;15.53;48.37;102488.00;5019126;28;19956;-72